Time;durP1;ratioP1;P1;durP2;ratioP2;P2;SDS_P1;SDS_P2;PMS_P1;PMS_P2;Temp;Humidity;BMP_temperature;BMP_pressure;BME280_temperature;BME280_humidity;BME280_pressure;Samples;Min_cycle;Max_cycle;Signal;HPM_P1;HPM_P2
2023/07/25 00:00:58;;;;;;;;;;;23.90;62.70;;;;;;5082621;28;19919;-37
2023/07/25 00:03:24;;;;;;;;;;;23.90;62.90;;;;;;5081484;28;20494;-37
2023/07/25 00:05:50;;;;;;;;;;;23.90;63.00;;;;;;5082407;28;19912;-37
2023/07/25 00:08:16;;;;;;;;;;;24.00;63.20;;;;;;5078107;28;19916;-37
2023/07/25 00:10:42;;;;;;;;;;;24.00;63.40;;;;;;5082429;28;19908;-37
2023/07/25 00:13:07;;;;;;;;;;;24.00;63.50;;;;;;5081901;28;19908;-38
2023/07/25 00:15:33;;;;;;;;;;;24.00;63.70;;;;;;5081983;28;19917;-37
2023/07/25 00:17:59;;;;;;;;;;;24.00;63.90;;;;;;5082029;28;19958;-37
2023/07/25 00:20:25;;;;;;;;;;;24.00;64.20;;;;;;5082044;28;19915;-38
2023/07/25 00:22:51;;;;;;;;;;;24.00;64.40;;;;;;5081897;28;19920;-37
2023/07/25 00:25:18;;;;;;;;;;;24.00;64.60;;;;;;5080886;28;19908;-37
2023/07/25 00:27:44;;;;;;;;;;;24.10;64.70;;;;;;5082064;28;19912;-37
2023/07/25 00:30:10;;;;;;;;;;;24.10;64.90;;;;;;5082068;28;19916;-37
2023/07/25 00:32:36;;;;;;;;;;;24.10;65.00;;;;;;5081438;28;19909;-37
2023/07/25 00:35:02;;;;;;;;;;;24.10;65.20;;;;;;5082153;28;19908;-37
2023/07/25 00:37:29;;;;;;;;;;;24.10;65.30;;;;;;5078254;28;19986;-37
2023/07/25 00:39:55;;;;;;;;;;;24.10;65.30;;;;;;5082471;28;19905;-37
2023/07/25 00:42:21;;;;;;;;;;;24.20;65.50;;;;;;5081516;28;19915;-38
2023/07/25 00:44:47;;;;;;;;;;;24.20;65.60;;;;;;5081714;28;20608;-37
2023/07/25 00:47:12;;;;;;;;;;;24.20;65.80;;;;;;5082779;28;19919;-37
2023/07/25 00:49:39;;;;;;;;;;;24.20;65.80;;;;;;5085797;28;19920;-37
2023/07/25 00:52:05;;;;;;;;;;;24.20;66.10;;;;;;5067874;28;19912;-37
2023/07/25 00:54:31;;;;;;;;;;;24.20;66.20;;;;;;5085210;28;19912;-37
2023/07/25 00:56:57;;;;;;;;;;;24.20;66.40;;;;;;5085201;28;19969;-37
2023/07/25 00:59:23;;;;;;;;;;;24.30;66.50;;;;;;5085084;28;19923;-37
2023/07/25 01:01:49;;;;;;;;;;;24.30;66.60;;;;;;5085612;28;20022;-37
2023/07/25 01:04:15;;;;;;;;;;;24.30;66.70;;;;;;5062762;28;19913;-37
2023/07/25 01:06:41;;;;;;;;;;;24.30;66.80;;;;;;5082879;28;19908;-37
2023/07/25 01:09:07;;;;;;;;;;;24.30;66.80;;;;;;5084556;28;19920;-38
2023/07/25 01:11:33;;;;;;;;;;;24.30;66.70;;;;;;5079413;28;20566;-38
2023/07/25 01:13:59;;;;;;;;;;;24.30;66.70;;;;;;5085127;28;19920;-37
2023/07/25 01:16:25;;;;;;;;;;;24.30;66.70;;;;;;5084769;28;20590;-37
2023/07/25 01:18:51;;;;;;;;;;;24.30;66.60;;;;;;5085271;28;19912;-37
2023/07/25 01:21:17;;;;;;;;;;;24.30;66.90;;;;;;5080728;28;19912;-37
2023/07/25 01:23:43;;;;;;;;;;;24.40;67.00;;;;;;5085160;28;20363;-37
2023/07/25 01:26:09;;;;;;;;;;;24.40;67.10;;;;;;5067043;28;19973;-37
2023/07/25 01:28:37;;;;;;;;;;;24.40;67.30;;;;;;5084957;28;19927;-37
2023/07/25 01:31:03;;;;;;;;;;;24.40;67.40;;;;;;5085303;28;20385;-37
2023/07/25 01:33:29;;;;;;;;;;;24.40;67.50;;;;;;5084584;28;19912;-37
2023/07/25 01:35:54;;;;;;;;;;;24.40;67.60;;;;;;5085000;28;19912;-37
2023/07/25 01:38:20;;;;;;;;;;;24.40;67.60;;;;;;5084607;28;19912;-37
2023/07/25 01:40:46;;;;;;;;;;;24.40;67.70;;;;;;5084929;28;19912;-37
2023/07/25 01:43:12;;;;;;;;;;;24.40;67.50;;;;;;5076981;28;19920;-38
2023/07/25 01:45:38;;;;;;;;;;;24.40;67.50;;;;;;5084920;28;19912;-38
2023/07/25 01:48:04;;;;;;;;;;;24.40;67.40;;;;;;5084329;28;19912;-37
2023/07/25 01:50:30;;;;;;;;;;;24.40;67.30;;;;;;5083708;28;20379;-37
2023/07/25 01:52:56;;;;;;;;;;;24.50;67.30;;;;;;5084810;28;19979;-37
2023/07/25 01:55:22;;;;;;;;;;;24.50;67.30;;;;;;5084461;28;19920;-37
2023/07/25 01:57:47;;;;;;;;;;;24.50;67.40;;;;;;5084027;28;20359;-39
2023/07/25 02:00:13;;;;;;;;;;;24.50;67.40;;;;;;5082690;28;19915;-37
2023/07/25 02:02:39;;;;;;;;;;;24.40;67.40;;;;;;5084393;28;19912;-37
2023/07/25 02:05:05;;;;;;;;;;;24.50;67.30;;;;;;5083454;28;19962;-38
2023/07/25 02:07:31;;;;;;;;;;;24.50;67.30;;;;;;5080935;28;19912;-37
2023/07/25 02:09:57;;;;;;;;;;;24.50;67.30;;;;;;5084136;28;19920;-38
2023/07/25 02:12:23;;;;;;;;;;;24.50;67.20;;;;;;5084018;28;19963;-37
2023/07/25 02:14:49;;;;;;;;;;;24.50;67.20;;;;;;5084323;28;19908;-37
2023/07/25 02:17:15;;;;;;;;;;;24.50;67.20;;;;;;5083927;28;19919;-37
2023/07/25 02:19:41;;;;;;;;;;;24.50;67.10;;;;;;5084352;28;19920;-38
2023/07/25 02:22:07;;;;;;;;;;;24.50;67.10;;;;;;5084200;28;19916;-38
2023/07/25 02:24:33;;;;;;;;;;;24.50;66.90;;;;;;5064362;28;19924;-37
2023/07/25 02:26:59;;;;;;;;;;;24.50;66.80;;;;;;5084083;28;19940;-38
2023/07/25 02:29:24;;;;;;;;;;;24.50;66.70;;;;;;5083437;28;19927;-37
2023/07/25 02:31:50;;;;;;;;;;;24.50;66.70;;;;;;5084190;28;19938;-37
2023/07/25 02:34:16;;;;;;;;;;;24.50;66.70;;;;;;5083752;28;19915;-38
2023/07/25 02:36:42;;;;;;;;;;;24.50;66.60;;;;;;5083826;28;19912;-37
2023/07/25 02:39:08;;;;;;;;;;;24.50;66.60;;;;;;5083812;28;19919;-37
2023/07/25 02:41:34;;;;;;;;;;;24.50;66.50;;;;;;5083706;28;20017;-37
2023/07/25 02:44:00;;;;;;;;;;;24.50;66.30;;;;;;5083879;28;19919;-37
2023/07/25 02:46:26;;;;;;;;;;;24.60;66.30;;;;;;5083356;28;19912;-38
2023/07/25 02:48:52;;;;;;;;;;;24.60;66.90;;;;;;5083668;28;19917;-37
2023/07/25 02:51:18;;;;;;;;;;;24.60;68.00;;;;;;5083083;28;19913;-37
2023/07/25 02:53:44;;;;;;;;;;;24.60;68.50;;;;;;5083660;28;19912;-37
2023/07/25 02:56:10;;;;;;;;;;;24.50;68.80;;;;;;5081800;28;20365;-37
2023/07/25 02:58:36;;;;;;;;;;;24.50;69.10;;;;;;5083213;28;19913;-37
2023/07/25 03:01:02;;;;;;;;;;;24.50;69.00;;;;;;5083590;28;19994;-37
2023/07/25 03:03:28;;;;;;;;;;;24.50;69.20;;;;;;5083200;28;19924;-37
2023/07/25 03:05:54;;;;;;;;;;;24.50;69.20;;;;;;5083380;28;19932;-37
2023/07/25 03:08:20;;;;;;;;;;;24.50;69.20;;;;;;5057820;28;19925;-37
2023/07/25 03:10:45;;;;;;;;;;;24.50;69.00;;;;;;5082403;28;20375;-37
2023/07/25 03:13:11;;;;;;;;;;;24.50;68.60;;;;;;5078468;28;19954;-37
2023/07/25 03:15:37;;;;;;;;;;;24.50;68.30;;;;;;5082168;28;20023;-37
2023/07/25 03:18:03;;;;;;;;;;;24.50;68.00;;;;;;5082092;28;19912;-37
2023/07/25 03:20:29;;;;;;;;;;;24.50;67.90;;;;;;5081867;28;19984;-37
2023/07/25 03:22:55;;;;;;;;;;;24.50;67.60;;;;;;5082244;28;19912;-37
2023/07/25 03:25:21;;;;;;;;;;;24.50;67.30;;;;;;5082269;28;19963;-37
2023/07/25 03:27:47;;;;;;;;;;;24.50;67.20;;;;;;5081507;28;19913;-37
2023/07/25 03:30:13;;;;;;;;;;;24.50;67.20;;;;;;5081822;28;19920;-37
2023/07/25 03:32:38;;;;;;;;;;;24.50;67.20;;;;;;5064126;28;19929;-37
2023/07/25 03:35:06;;;;;;;;;;;24.50;67.90;;;;;;5082328;28;20268;-37
2023/07/25 03:37:32;;;;;;;;;;;24.50;68.40;;;;;;5081216;28;19920;-37
2023/07/25 03:39:58;;;;;;;;;;;24.50;68.90;;;;;;5081809;28;19909;-37
2023/07/25 03:42:23;;;;;;;;;;;24.50;69.00;;;;;;5081757;28;19916;-36
2023/07/25 03:44:50;;;;;;;;;;;24.50;69.20;;;;;;5082166;28;19912;-38
2023/07/25 03:47:16;;;;;;;;;;;24.50;69.40;;;;;;5081545;28;19977;-37
2023/07/25 03:49:42;;;;;;;;;;;24.50;69.40;;;;;;5081438;28;19959;-37
2023/07/25 03:52:08;;;;;;;;;;;24.50;69.40;;;;;;5080035;28;19908;-37
2023/07/25 03:54:34;;;;;;;;;;;24.50;69.20;;;;;;5080945;28;19976;-37
2023/07/25 03:57:01;;;;;;;;;;;24.50;68.90;;;;;;5081540;28;19908;-37
2023/07/25 03:59:27;;;;;;;;;;;24.50;68.60;;;;;;5081685;28;19912;-37
2023/07/25 04:01:53;;;;;;;;;;;24.40;68.30;;;;;;5081049;28;20474;-37
2023/07/25 04:04:19;;;;;;;;;;;24.50;68.40;;;;;;5079834;28;19909;-37
2023/07/25 04:06:45;;;;;;;;;;;24.40;68.30;;;;;;5081585;28;20007;-37
2023/07/25 04:09:11;;;;;;;;;;;24.40;68.20;;;;;;5021080;28;1643852;-36
2023/07/25 04:11:36;;;;;;;;;;;24.40;68.30;;;;;;5074520;28;19913;-37
2023/07/25 04:14:02;;;;;;;;;;;24.40;68.30;;;;;;5082279;28;19918;-37
2023/07/25 04:16:28;;;;;;;;;;;24.40;68.30;;;;;;5080632;28;20007;-36
2023/07/25 04:18:54;;;;;;;;;;;24.40;68.50;;;;;;5082398;28;19931;-37
2023/07/25 04:21:20;;;;;;;;;;;24.40;68.70;;;;;;5081234;28;19922;-37
2023/07/25 04:23:46;;;;;;;;;;;24.40;68.80;;;;;;5082635;28;19923;-37
2023/07/25 04:26:12;;;;;;;;;;;24.40;68.80;;;;;;5081880;28;19912;-37
2023/07/25 04:28:38;;;;;;;;;;;24.40;69.00;;;;;;5082018;28;19924;-37
2023/07/25 04:31:03;;;;;;;;;;;24.40;69.10;;;;;;5082173;28;19922;-37
2023/07/25 04:33:29;;;;;;;;;;;24.40;69.10;;;;;;5081886;28;19934;-37
2023/07/25 04:35:55;;;;;;;;;;;24.40;69.00;;;;;;5082037;28;19908;-37
2023/07/25 04:38:21;;;;;;;;;;;24.40;69.10;;;;;;5078734;28;19984;-37
2023/07/25 04:40:47;;;;;;;;;;;24.30;69.00;;;;;;5081968;28;19919;-37
2023/07/25 04:43:13;;;;;;;;;;;24.30;68.80;;;;;;5081782;28;19962;-37
2023/07/25 04:45:39;;;;;;;;;;;24.30;68.80;;;;;;5081768;28;19909;-37
2023/07/25 04:48:05;;;;;;;;;;;24.30;68.60;;;;;;5079140;28;19939;-37
2023/07/25 04:50:31;;;;;;;;;;;24.30;68.70;;;;;;5064120;28;19912;-37
2023/07/25 04:52:57;;;;;;;;;;;24.30;68.60;;;;;;5081587;28;19969;-37
2023/07/25 04:55:22;;;;;;;;;;;24.30;68.60;;;;;;5081604;28;19919;-37
2023/07/25 04:57:49;;;;;;;;;;;24.30;68.70;;;;;;5081677;28;19912;-37
2023/07/25 05:00:15;;;;;;;;;;;24.30;68.60;;;;;;5080119;28;19912;-37
2023/07/25 05:02:41;;;;;;;;;;;24.30;68.80;;;;;;5081729;28;19935;-37
2023/07/25 05:05:07;;;;;;;;;;;24.30;68.90;;;;;;5080348;28;19934;-37
2023/07/25 05:07:33;;;;;;;;;;;24.30;69.20;;;;;;5078297;28;19916;-37
2023/07/25 05:09:59;;;;;;;;;;;24.30;69.20;;;;;;5063808;28;19924;-37
2023/07/25 05:12:24;;;;;;;;;;;24.30;69.20;;;;;;5081466;28;19912;-37
2023/07/25 05:14:50;;;;;;;;;;;24.30;69.30;;;;;;5079648;28;19973;-37
2023/07/25 05:17:16;;;;;;;;;;;24.30;69.30;;;;;;5079363;28;19914;-37
2023/07/25 05:19:42;;;;;;;;;;;24.20;69.40;;;;;;5081462;28;20055;-37
2023/07/25 05:22:08;;;;;;;;;;;24.20;69.30;;;;;;5081698;28;19915;-38
2023/07/25 05:24:34;;;;;;;;;;;24.20;69.30;;;;;;5073528;28;20586;-36
2023/07/25 05:27:00;;;;;;;;;;;24.20;69.30;;;;;;5081558;28;19912;-37
2023/07/25 05:29:26;;;;;;;;;;;24.20;69.00;;;;;;5081131;28;19934;-37
2023/07/25 05:31:52;;;;;;;;;;;24.20;68.90;;;;;;5082704;28;19908;-37
2023/07/25 05:34:18;;;;;;;;;;;24.20;69.00;;;;;;5084885;28;20411;-36
2023/07/25 05:36:44;;;;;;;;;;;24.20;68.90;;;;;;5085286;28;20235;-37
2023/07/25 05:39:10;;;;;;;;;;;24.20;68.90;;;;;;5081730;28;19909;-37
2023/07/25 05:41:37;;;;;;;;;;;24.20;68.90;;;;;;5084639;28;19909;-37
2023/07/25 05:44:03;;;;;;;;;;;24.10;69.00;;;;;;5085095;28;20459;-37
2023/07/25 05:46:29;;;;;;;;;;;24.10;69.10;;;;;;5084736;28;19950;-37
2023/07/25 05:48:55;;;;;;;;;;;24.10;69.20;;;;;;5084896;28;19939;-37
2023/07/25 05:51:21;;;;;;;;;;;24.10;69.20;;;;;;5084557;28;19912;-37
2023/07/25 05:53:47;;;;;;;;;;;24.10;69.30;;;;;;5084788;28;19976;-37
2023/07/25 05:56:13;;;;;;;;;;;24.10;69.40;;;;;;5084742;28;19912;-37
2023/07/25 05:58:39;;;;;;;;;;;24.10;69.40;;;;;;5081970;28;19913;-37
2023/07/25 06:01:05;;;;;;;;;;;24.10;69.40;;;;;;5084837;28;19908;-37
2023/07/25 06:03:31;;;;;;;;;;;24.10;69.50;;;;;;5084381;28;20450;-37
2023/07/25 06:05:57;;;;;;;;;;;24.10;69.40;;;;;;5080261;28;19913;-37
2023/07/25 06:08:23;;;;;;;;;;;24.10;69.40;;;;;;5079320;28;19928;-37
2023/07/25 06:10:49;;;;;;;;;;;24.10;69.40;;;;;;5083011;28;19912;-37
2023/07/25 06:13:15;;;;;;;;;;;24.00;69.30;;;;;;5081502;28;19919;-37
2023/07/25 06:15:41;;;;;;;;;;;24.00;69.20;;;;;;5076991;28;19995;-38
2023/07/25 06:18:06;;;;;;;;;;;24.00;69.10;;;;;;5084355;28;19908;-37
2023/07/25 06:20:32;;;;;;;;;;;24.00;69.20;;;;;;5084449;28;19919;-37
2023/07/25 06:22:59;;;;;;;;;;;24.00;69.30;;;;;;5083794;28;19908;-37
2023/07/25 06:25:25;;;;;;;;;;;24.00;69.10;;;;;;5084002;28;20289;-37
2023/07/25 06:27:52;;;;;;;;;;;24.00;70.00;;;;;;5065835;28;19983;-37
2023/07/25 06:30:18;;;;;;;;;;;24.00;69.40;;;;;;5083906;28;19920;-37
2023/07/25 06:32:43;;;;;;;;;;;24.00;69.50;;;;;;5083926;28;20022;-37
2023/07/25 06:35:09;;;;;;;;;;;24.00;69.60;;;;;;5083862;28;19930;-37
2023/07/25 06:37:35;;;;;;;;;;;24.00;69.60;;;;;;5083671;28;19943;-37
2023/07/25 06:40:02;;;;;;;;;;;24.00;69.60;;;;;;5083992;28;19975;-37
2023/07/25 06:42:28;;;;;;;;;;;24.00;69.70;;;;;;5082847;28;19919;-37
2023/07/25 06:44:54;;;;;;;;;;;23.90;69.70;;;;;;5083138;28;19919;-37
2023/07/25 06:47:20;;;;;;;;;;;23.90;69.70;;;;;;5082333;28;19920;-37
2023/07/25 06:49:46;;;;;;;;;;;23.90;70.30;;;;;;5083827;28;19916;-37
2023/07/25 06:52:12;;;;;;;;;;;23.90;69.60;;;;;;5082656;28;19909;-37
2023/07/25 06:54:38;;;;;;;;;;;23.90;69.60;;;;;;5083881;28;19938;-37
2023/07/25 06:57:04;;;;;;;;;;;23.90;69.70;;;;;;5083399;28;19919;-37
2023/07/25 06:59:30;;;;;;;;;;;23.90;69.60;;;;;;5083172;28;19912;-37
2023/07/25 07:01:56;;;;;;;;;;;23.90;69.60;;;;;;5083503;28;19908;-37
2023/07/25 07:04:22;;;;;;;;;;;23.80;69.70;;;;;;5082115;28;19934;-37
2023/07/25 07:06:48;;;;;;;;;;;23.80;69.70;;;;;;5080796;28;19912;-37
2023/07/25 07:09:14;;;;;;;;;;;23.80;69.70;;;;;;5080134;28;19924;-37
2023/07/25 07:11:40;;;;;;;;;;;23.80;69.70;;;;;;5082988;28;19909;-37
2023/07/25 07:14:06;;;;;;;;;;;23.80;69.80;;;;;;5083191;28;19915;-37
2023/07/25 07:16:32;;;;;;;;;;;23.80;69.90;;;;;;5079867;28;19912;-37
2023/07/25 07:18:58;;;;;;;;;;;23.80;69.90;;;;;;5078790;28;19912;-37
2023/07/25 07:21:23;;;;;;;;;;;23.80;69.90;;;;;;5082015;28;19962;-37
2023/07/25 07:23:49;;;;;;;;;;;23.80;70.00;;;;;;5078928;28;19912;-37
2023/07/25 07:26:15;;;;;;;;;;;23.80;70.00;;;;;;5082666;28;19912;-37
2023/07/25 07:28:41;;;;;;;;;;;23.70;69.90;;;;;;5075008;28;19926;-37
2023/07/25 07:31:12;;;;;;;;;;;23.70;69.90;;;;;;5083255;28;19914;-37
2023/07/25 07:33:38;;;;;;;;;;;23.70;69.90;;;;;;5082667;28;19912;-37
2023/07/25 07:36:04;;;;;;;;;;;23.70;69.80;;;;;;5082885;28;19922;-37
2023/07/25 07:38:30;;;;;;;;;;;23.70;69.90;;;;;;5079608;28;19912;-36
2023/07/25 07:40:56;;;;;;;;;;;23.70;69.90;;;;;;5083054;28;19913;-37
2023/07/25 07:43:21;;;;;;;;;;;23.70;69.90;;;;;;5064179;28;19975;-37
2023/07/25 07:45:48;;;;;;;;;;;23.70;69.90;;;;;;5082917;28;19912;-37
2023/07/25 07:48:14;;;;;;;;;;;23.70;69.80;;;;;;5082634;28;19913;-37
2023/07/25 07:50:40;;;;;;;;;;;23.70;69.90;;;;;;5082814;28;19983;-37
2023/07/25 07:53:05;;;;;;;;;;;23.70;70.00;;;;;;5082231;28;19955;-37
2023/07/25 07:55:31;;;;;;;;;;;23.70;70.00;;;;;;5082340;28;19934;-37
2023/07/25 07:57:57;;;;;;;;;;;23.70;70.00;;;;;;5082228;28;19919;-36
2023/07/25 08:00:26;;;;;;;;;;;23.60;70.10;;;;;;5082125;28;19923;-37
2023/07/25 08:02:52;;;;;;;;;;;23.60;70.00;;;;;;5082438;28;19947;-36
2023/07/25 08:05:18;;;;;;;;;;;23.60;70.10;;;;;;5082403;28;20609;-37
2023/07/25 08:07:43;;;;;;;;;;;23.60;70.10;;;;;;5078031;28;19916;-37
2023/07/25 08:10:09;;;;;;;;;;;23.60;70.10;;;;;;5082007;28;19924;-36
2023/07/25 08:12:35;;;;;;;;;;;23.60;70.10;;;;;;5082057;28;19912;-36
2023/07/25 08:15:01;;;;;;;;;;;23.60;70.20;;;;;;5079704;28;19915;-36
2023/07/25 08:17:27;;;;;;;;;;;23.60;70.20;;;;;;5062647;28;19912;-37
2023/07/25 08:19:53;;;;;;;;;;;23.60;70.10;;;;;;5082536;28;19923;-37
2023/07/25 08:22:19;;;;;;;;;;;23.60;70.10;;;;;;5081746;28;20380;-37
2023/07/25 08:24:45;;;;;;;;;;;23.60;70.10;;;;;;5081512;28;19985;-37
2023/07/25 08:27:11;;;;;;;;;;;23.50;70.10;;;;;;5081130;28;19974;-36
2023/07/25 08:29:40;;;;;;;;;;;23.50;70.20;;;;;;5082354;28;19943;-37
2023/07/25 08:32:07;;;;;;;;;;;23.50;70.30;;;;;;5082401;28;19908;-42
2023/07/25 08:34:33;;;;;;;;;;;23.50;70.20;;;;;;5063844;28;19916;-37
2023/07/25 08:36:59;;;;;;;;;;;23.50;70.30;;;;;;5080278;28;19915;-37
2023/07/25 08:39:25;;;;;;;;;;;23.50;70.30;;;;;;5080985;28;20369;-37
2023/07/25 08:41:53;;;;;;;;;;;23.50;70.30;;;;;;5080493;28;19915;-37
2023/07/25 08:44:19;;;;;;;;;;;23.50;70.40;;;;;;5081778;28;19912;-37
2023/07/25 08:46:45;;;;;;;;;;;23.50;70.50;;;;;;5077314;28;19964;-37
2023/07/25 08:49:14;;;;;;;;;;;23.50;70.40;;;;;;5078744;28;19952;-37
2023/07/25 08:51:41;;;;;;;;;;;23.50;70.40;;;;;;5074975;28;19908;-37
2023/07/25 08:54:23;;;;;;;;;;;23.40;70.40;;;;;;5082184;28;20341;-37
2023/07/25 08:56:49;;;;;;;;;;;23.40;70.40;;;;;;5074623;28;20661;-36
2023/07/25 08:59:15;;;;;;;;;;;23.40;70.40;;;;;;5078886;28;19912;-37
2023/07/25 09:01:41;;;;;;;;;;;23.40;70.40;;;;;;5064056;28;19912;-37
2023/07/25 09:04:08;;;;;;;;;;;23.40;70.50;;;;;;5080437;28;20003;-37
2023/07/25 09:06:34;;;;;;;;;;;23.40;70.50;;;;;;5082014;28;19916;-37
2023/07/25 09:09:00;;;;;;;;;;;23.40;70.50;;;;;;5082421;28;19927;-37
2023/07/25 09:11:26;;;;;;;;;;;23.40;70.50;;;;;;5067886;28;19912;-37
2023/07/25 09:13:52;;;;;;;;;;;23.40;70.50;;;;;;5085673;28;20287;-37
2023/07/25 09:16:18;;;;;;;;;;;23.40;70.60;;;;;;5085357;28;19913;-37
2023/07/25 09:18:44;;;;;;;;;;;23.40;70.50;;;;;;5085708;28;19917;-37
2023/07/25 09:21:12;;;;;;;;;;;23.30;70.50;;;;;;5084750;28;19912;-37
2023/07/25 09:23:38;;;;;;;;;;;23.30;70.60;;;;;;5077941;28;19912;-37
2023/07/25 09:26:05;;;;;;;;;;;23.30;70.60;;;;;;5085410;28;19916;-37
2023/07/25 09:28:33;;;;;;;;;;;23.30;70.60;;;;;;5084469;28;19917;-37
2023/07/25 09:31:04;;;;;;;;;;;23.30;70.70;;;;;;5084581;28;19995;-37
2023/07/25 09:33:30;;;;;;;;;;;23.30;70.70;;;;;;5085172;28;19917;-36
2023/07/25 09:35:56;;;;;;;;;;;23.30;70.80;;;;;;5084864;28;19971;-37
2023/07/25 09:38:22;;;;;;;;;;;23.30;70.70;;;;;;5081781;28;19976;-37
2023/07/25 09:40:48;;;;;;;;;;;23.30;70.70;;;;;;5085258;28;19966;-37
2023/07/25 09:43:21;;;;;;;;;;;23.30;70.80;;;;;;5084422;28;20507;-37
2023/07/25 09:45:47;;;;;;;;;;;23.30;70.80;;;;;;5078386;28;19944;-37
2023/07/25 09:48:14;;;;;;;;;;;23.20;70.80;;;;;;5084319;28;19913;-37
2023/07/25 09:50:40;;;;;;;;;;;23.20;70.90;;;;;;5085024;28;19912;-37
2023/07/25 09:53:09;;;;;;;;;;;23.20;70.80;;;;;;5066851;28;19912;-37
2023/07/25 09:55:34;;;;;;;;;;;23.20;70.80;;;;;;5084196;28;19912;-37
2023/07/25 09:58:00;;;;;;;;;;;23.20;70.90;;;;;;5084736;28;20005;-37
2023/07/25 10:00:26;;;;;;;;;;;23.20;70.90;;;;;;5083916;28;19912;-37
2023/07/25 10:02:52;;;;;;;;;;;23.20;70.90;;;;;;5084967;28;19930;-37
2023/07/25 10:05:18;;;;;;;;;;;23.20;71.00;;;;;;5083735;28;19912;-37
2023/07/25 10:07:44;;;;;;;;;;;23.20;71.00;;;;;;5084047;28;19916;-37
2023/07/25 10:10:10;;;;;;;;;;;23.20;71.10;;;;;;5084053;28;19920;-37
2023/07/25 10:12:35;;;;;;;;;;;23.20;71.10;;;;;;5084621;28;19916;-37
2023/07/25 10:15:01;;;;;;;;;;;23.10;71.00;;;;;;5077908;28;20184;-37
2023/07/25 10:17:27;;;;;;;;;;;23.10;71.00;;;;;;5083302;28;19919;-37
2023/07/25 10:19:56;;;;;;;;;;;23.10;71.10;;;;;;5082960;28;19917;-37
2023/07/25 10:22:35;;;;;;;;;;;23.10;71.10;;;;;;5084217;28;20341;-37
2023/07/25 10:25:01;;;;;;;;;;;23.10;71.20;;;;;;5084206;28;19912;-37
2023/07/25 10:27:27;;;;;;;;;;;23.10;71.20;;;;;;5083849;28;19979;-37
2023/07/25 10:29:53;;;;;;;;;;;23.10;71.20;;;;;;5084116;28;20385;-37
2023/07/25 10:32:22;;;;;;;;;;;23.10;71.20;;;;;;5082866;28;19973;-37
2023/07/25 10:34:51;;;;;;;;;;;23.10;71.20;;;;;;5082314;28;19912;-37
2023/07/25 10:37:30;;;;;;;;;;;23.10;71.30;;;;;;5080372;28;19943;-37
2023/07/25 10:40:15;;;;;;;;;;;23.00;71.20;;;;;;5083922;28;19951;-37
2023/07/25 10:42:42;;;;;;;;;;;23.00;71.30;;;;;;5083871;28;20003;-37
2023/07/25 10:45:21;;;;;;;;;;;23.00;71.20;;;;;;5083529;28;19951;-37
2023/07/25 10:47:48;;;;;;;;;;;23.00;71.20;;;;;;5077279;28;19931;-37
2023/07/25 10:50:24;;;;;;;;;;;23.00;71.10;;;;;;5083038;28;19924;-36
2023/07/25 10:52:50;;;;;;;;;;;23.00;71.30;;;;;;5060369;28;19912;-37
2023/07/25 10:55:16;;;;;;;;;;;23.00;71.40;;;;;;5080659;28;19912;-37
2023/07/25 10:57:41;;;;;;;;;;;23.00;71.40;;;;;;5073086;28;19999;-38
2023/07/25 11:00:11;;;;;;;;;;;23.00;71.30;;;;;;5083561;28;19919;-37
2023/07/25 11:02:43;;;;;;;;;;;23.00;71.50;;;;;;5083719;28;19942;-37
2023/07/25 11:05:12;;;;;;;;;;;23.00;71.50;;;;;;5082996;28;19971;-41
2023/07/25 11:07:58;;;;;;;;;;;23.00;71.50;;;;;;5079721;28;20502;-37
2023/07/25 11:10:25;;;;;;;;;;;23.00;71.50;;;;;;5082620;28;20071;-37
2023/07/25 11:12:52;;;;;;;;;;;22.90;71.50;;;;;;5083440;28;20035;-37
2023/07/25 11:15:38;;;;;;;;;;;22.90;71.40;;;;;;5082855;28;19915;-37
2023/07/25 11:18:06;;;;;;;;;;;22.90;71.40;;;;;;5040591;28;19916;-37
2023/07/25 11:20:32;;;;;;;;;;;22.90;71.40;;;;;;5040367;28;19913;-37
2023/07/25 11:22:58;;;;;;;;;;;22.90;71.40;;;;;;5040399;28;19952;-37
2023/07/25 11:25:24;;;;;;;;;;;22.90;71.50;;;;;;5040019;28;19928;-37
2023/07/25 11:27:51;;;;;;;;;;;22.90;71.50;;;;;;5040869;28;19939;-36
2023/07/25 11:30:18;;;;;;;;;;;22.90;71.50;;;;;;5037819;28;19999;-36
2023/07/25 11:32:47;;;;;;;;;;;22.90;71.50;;;;;;5040199;28;19951;-37
2023/07/25 11:35:13;;;;;;;;;;;22.80;71.50;;;;;;5039661;28;19913;-37
2023/07/25 11:37:40;;;;;;;;;;;22.90;71.70;;;;;;5036948;28;19913;-36
2023/07/25 11:40:10;;;;;;;;;;;22.80;71.50;;;;;;5040407;28;20348;-37
2023/07/25 11:42:38;;;;;;;;;;;22.80;71.60;;;;;;5040103;28;19944;-36
2023/07/25 11:45:04;;;;;;;;;;;22.80;71.60;;;;;;5040051;28;19913;-37
2023/07/25 11:47:30;;;;;;;;;;;22.80;71.70;;;;;;5039678;28;19964;-37
2023/07/25 11:49:56;;;;;;;;;;;22.80;71.70;;;;;;5040149;28;20332;-37
2023/07/25 11:52:22;;;;;;;;;;;22.80;71.70;;;;;;5023176;28;19952;-37
2023/07/25 11:54:48;;;;;;;;;;;22.80;71.70;;;;;;5053662;28;19927;-36
2023/07/25 11:57:14;;;;;;;;;;;22.80;71.70;;;;;;5064426;28;19913;-37
2023/07/25 11:59:40;;;;;;;;;;;22.80;71.70;;;;;;5082750;28;19919;-37
2023/07/25 12:02:07;;;;;;;;;;;22.80;71.70;;;;;;5082513;28;20400;-37
2023/07/25 12:04:35;;;;;;;;;;;22.80;71.80;;;;;;5082027;28;20015;-37
2023/07/25 12:07:00;;;;;;;;;;;22.80;71.80;;;;;;5060942;28;19917;-37
2023/07/25 12:09:29;;;;;;;;;;;22.70;71.80;;;;;;5082225;28;19978;-37
2023/07/25 12:11:55;;;;;;;;;;;22.70;71.80;;;;;;5082430;28;19919;-37
2023/07/25 12:14:22;;;;;;;;;;;22.70;71.80;;;;;;5081647;28;19908;-37
2023/07/25 12:16:47;;;;;;;;;;;22.70;71.90;;;;;;5075455;28;19939;-37
2023/07/25 12:19:14;;;;;;;;;;;22.70;71.90;;;;;;5082136;28;19916;-37
2023/07/25 12:21:40;;;;;;;;;;;22.70;71.90;;;;;;5082256;28;19913;-37
2023/07/25 12:24:07;;;;;;;;;;;22.70;71.90;;;;;;5082266;28;19909;-37
2023/07/25 12:26:45;;;;;;;;;;;22.70;71.90;;;;;;5079692;28;19913;-37
2023/07/25 12:29:14;;;;;;;;;;;22.70;72.00;;;;;;5081439;28;19920;-37
2023/07/25 12:31:40;;;;;;;;;;;22.70;72.00;;;;;;5082356;28;19912;-37
2023/07/25 12:34:06;;;;;;;;;;;22.70;72.10;;;;;;5082048;28;19914;-37
2023/07/25 12:36:32;;;;;;;;;;;22.70;72.10;;;;;;5080468;28;19912;-37
2023/07/25 12:38:58;;;;;;;;;;;22.70;72.10;;;;;;5082361;28;19913;-36
2023/07/25 12:41:24;;;;;;;;;;;22.70;72.10;;;;;;5082554;28;20292;-37
2023/07/25 12:43:50;;;;;;;;;;;22.70;72.20;;;;;;5086209;28;20042;-37
2023/07/25 12:46:15;;;;;;;;;;;22.70;72.20;;;;;;5085661;28;19912;-37
2023/07/25 12:48:41;;;;;;;;;;;22.70;72.10;;;;;;5086029;28;19920;-37
2023/07/25 12:51:08;;;;;;;;;;;22.70;72.10;;;;;;5084883;28;19968;-37
2023/07/25 12:53:33;;;;;;;;;;;22.70;72.20;;;;;;5086041;28;19916;-37
2023/07/25 12:55:59;;;;;;;;;;;22.70;72.20;;;;;;5083867;28;19935;-37
2023/07/25 12:58:45;;;;;;;;;;;22.70;72.20;;;;;;5013490;28;19997;-37
2023/07/25 13:01:11;;;;;;;;;;;22.70;72.20;;;;;;5018804;28;19953;-37
2023/07/25 13:03:40;;;;;;;;;;;22.70;72.40;;;;;;5005900;28;20915;-37
2023/07/25 13:06:06;;;;;;;;;;;22.70;72.60;;;;;;5017001;28;19917;-37
2023/07/25 13:08:33;;;;;;;;;;;22.70;72.50;;;;;;5013417;28;19921;-37
2023/07/25 13:10:58;;;;;;;;;;;22.70;72.50;;;;;;5021680;28;19909;-37
2023/07/25 13:13:24;;;;;;;;;;;22.70;72.50;;;;;;5013310;28;19944;-38
2023/07/25 13:15:50;;;;;;;;;;;22.70;72.40;;;;;;5021122;28;19913;-37
2023/07/25 13:18:16;;;;;;;;;;;22.70;72.50;;;;;;5013658;28;20768;-37
2023/07/25 13:20:42;;;;;;;;;;;22.70;72.50;;;;;;5007760;28;19909;-37
2023/07/25 13:23:09;;;;;;;;;;;22.70;72.50;;;;;;5015186;28;19922;-37
2023/07/25 13:25:36;;;;;;;;;;;22.70;72.50;;;;;;5019127;28;19976;-37
2023/07/25 13:28:02;;;;;;;;;;;22.70;72.60;;;;;;5016998;28;19920;-37
2023/07/25 13:30:28;;;;;;;;;;;22.70;72.70;;;;;;5020782;28;20011;-37
2023/07/25 13:32:53;;;;;;;;;;;22.70;72.80;;;;;;5009688;28;19944;-37
2023/07/25 13:35:19;;;;;;;;;;;22.70;72.70;;;;;;5021349;28;19927;-37
2023/07/25 13:37:47;;;;;;;;;;;22.80;72.90;;;;;;5061564;28;20322;-37
2023/07/25 13:40:31;;;;;;;;;;;22.70;72.80;;;;;;5024530;28;19976;-37
2023/07/25 13:42:57;;;;;;;;;;;22.80;73.00;;;;;;5023445;28;19914;-37
2023/07/25 13:45:23;;;;;;;;;;;22.80;73.00;;;;;;5029977;28;20135;-38
2023/07/25 13:47:49;;;;;;;;;;;22.80;72.90;;;;;;5023735;28;19914;-37
2023/07/25 13:50:15;;;;;;;;;;;22.80;73.00;;;;;;5023720;28;19928;-37
2023/07/25 13:52:41;;;;;;;;;;;22.80;73.10;;;;;;5029918;28;19985;-37
2023/07/25 13:55:07;;;;;;;;;;;22.80;73.10;;;;;;5029701;28;20394;-37
2023/07/25 13:57:33;;;;;;;;;;;22.80;73.00;;;;;;5007307;28;19944;-37
2023/07/25 13:59:59;;;;;;;;;;;22.80;73.00;;;;;;5028727;28;19913;-37
2023/07/25 14:02:24;;;;;;;;;;;22.80;73.00;;;;;;5039508;28;19912;-37
2023/07/25 14:04:50;;;;;;;;;;;22.90;73.10;;;;;;5040543;28;20397;-37
2023/07/25 14:07:16;;;;;;;;;;;22.90;73.10;;;;;;5028924;28;19955;-37
2023/07/25 14:09:42;;;;;;;;;;;22.90;73.30;;;;;;5026026;28;19924;-38
2023/07/25 14:12:08;;;;;;;;;;;22.90;73.40;;;;;;5040326;28;19913;-37